Time;durP1;ratioP1;P1;durP2;ratioP2;P2;SDS_P1;SDS_P2;PMS_P1;PMS_P2;Temp;Humidity;BMP_temperature;BMP_pressure;BME280_temperature;BME280_humidity;BME280_pressure;Samples;Min_cycle;Max_cycle;Signal;HPM_P1;HPM_P2
2022/11/09 00:01:17;;;;;;;10.50;6.90;;;11.50;99.90;;;;;;5073645;28;20848;-80
2022/11/09 00:03:42;;;;;;;13.87;6.70;;;11.50;99.90;;;;;;5057388;28;20422;-80
2022/11/09 00:06:08;;;;;;;13.00;7.50;;;11.50;99.90;;;;;;5073815;28;20661;-80
2022/11/09 00:08:36;;;;;;;11.90;7.13;;;11.50;99.90;;;;;;5091690;28;20198;-81
2022/11/09 00:11:08;;;;;;;8.73;4.10;;;11.60;99.90;;;;;;5073378;28;20201;-80
2022/11/09 00:13:38;;;;;;;8.07;2.50;;;11.80;99.90;;;;;;5056812;28;20867;-81
2022/11/09 00:16:09;;;;;;;5.77;3.13;;;12.10;99.90;;;;;;5039908;28;20449;-81
2022/11/09 00:18:35;;;;;;;8.20;3.67;;;12.30;99.90;;;;;;5072930;28;20471;-80
2022/11/09 00:21:06;;;;;;;8.10;3.73;;;12.40;99.90;;;;;;5056811;28;20778;-80
2022/11/09 00:23:31;;;;;;;5.90;3.40;;;12.40;99.90;;;;;;5073409;28;20427;-80
2022/11/09 00:26:06;;;;;;;7.37;4.20;;;12.30;99.90;;;;;;5072807;28;20422;-80
2022/11/09 00:28:32;;;;;;;8.40;3.60;;;12.50;99.90;;;;;;5090998;28;20208;-81
2022/11/09 00:31:03;;;;;;;5.33;2.93;;;12.50;99.90;;;;;;5090824;28;20460;-81
2022/11/09 00:33:29;;;;;;;7.87;3.00;;;12.50;99.90;;;;;;5090716;28;20418;-81
2022/11/09 00:35:55;;;;;;;5.37;4.17;;;12.40;99.90;;;;;;5090858;28;20416;-80
2022/11/09 00:38:21;;;;;;;6.77;4.43;;;12.40;99.90;;;;;;5072399;28;20467;-80
2022/11/09 00:40:47;;;;;;;8.93;5.17;;;12.30;99.90;;;;;;5072064;28;20240;-81
2022/11/09 00:43:13;;;;;;;7.20;5.00;;;12.30;99.90;;;;;;5072045;28;20431;-81
2022/11/09 00:45:41;;;;;;;7.20;5.10;;;12.40;99.90;;;;;;5039513;28;20452;-80
2022/11/09 00:48:07;;;;;;;4.97;3.30;;;12.30;99.90;;;;;;5072585;28;20213;-80
2022/11/09 00:50:33;;;;;;;3.13;2.47;;;12.40;99.90;;;;;;5071823;28;20471;-80
2022/11/09 00:52:59;;;;;;;3.70;2.40;;;12.60;99.90;;;;;;5058071;28;20954;-83
2022/11/09 00:55:25;;;;;;;2.90;1.50;;;13.00;99.90;;;;;;5077524;28;20206;-82
2022/11/09 00:57:52;;;;;;;3.93;1.80;;;13.20;99.90;;;;;;5063104;28;20435;-85
2022/11/09 01:00:19;;;;;;;3.93;2.17;;;13.50;99.90;;;;;;5093588;28;20205;-80
2022/11/09 01:02:45;;;;;;;2.47;1.63;;;13.60;99.90;;;;;;5065613;28;20520;-77
2022/11/09 01:05:11;;;;;;;2.33;1.43;;;13.70;99.90;;;;;;5098162;28;20428;-78
2022/11/09 01:07:37;;;;;;;4.03;1.23;;;13.70;99.90;;;;;;5082253;28;20470;-78
2022/11/09 01:10:05;;;;;;;3.40;1.30;;;13.80;99.90;;;;;;5068482;28;20328;-83
2022/11/09 01:12:30;;;;;;;1.30;1.10;;;13.80;99.90;;;;;;5097164;28;20459;-83
2022/11/09 01:14:56;;;;;;;1.50;1.20;;;13.80;99.90;;;;;;5077655;28;20432;-82
2022/11/09 01:17:22;;;;;;;2.77;1.20;;;13.90;99.90;;;;;;5076128;28;20424;-80
2022/11/09 01:19:48;;;;;;;2.43;1.73;;;13.90;99.90;;;;;;5076061;28;20186;-81
2022/11/09 01:22:14;;;;;;;1.60;1.30;;;13.90;99.90;;;;;;5093961;28;20435;-81
2022/11/09 01:24:40;;;;;;;1.40;1.30;;;14.10;99.90;;;;;;5094048;28;20421;-81
2022/11/09 01:27:06;;;;;;;4.80;1.80;;;14.10;99.90;;;;;;5058197;28;20430;-81
2022/11/09 01:29:31;;;;;;;2.07;1.20;;;14.10;99.90;;;;;;5075096;28;20290;-81
2022/11/09 01:31:57;;;;;;;3.70;1.20;;;14.10;99.90;;;;;;5058282;28;20571;-82
2022/11/09 01:34:23;;;;;;;2.70;1.20;;;14.20;99.90;;;;;;5074923;28;20436;-82
2022/11/09 01:36:51;;;;;;;4.80;1.60;;;14.20;99.90;;;;;;5093377;28;20181;-81
2022/11/09 01:39:18;;;;;;;3.80;1.20;;;14.20;99.90;;;;;;5074481;28;20284;-82
2022/11/09 01:41:44;;;;;;;3.17;1.40;;;14.20;99.90;;;;;;5074763;28;20501;-81
2022/11/09 01:44:11;;;;;;;3.03;1.40;;;14.10;99.90;;;;;;5092383;28;20466;-81
2022/11/09 01:46:49;;;;;;;2.63;1.40;;;14.00;99.90;;;;;;5057125;28;21031;-80
2022/11/09 01:49:19;;;;;;;4.07;1.93;;;14.00;99.90;;;;;;5073863;28;20444;-80
2022/11/09 01:51:51;;;;;;;1.53;1.20;;;14.10;99.90;;;;;;5073783;28;20822;-82
2022/11/09 01:54:28;;;;;;;1.80;1.20;;;14.10;99.90;;;;;;5092285;28;20414;-80
2022/11/09 01:56:56;;;;;;;3.50;2.00;;;14.10;99.90;;;;;;5057827;28;20435;-81
2022/11/09 01:59:27;;;;;;;2.17;1.37;;;14.00;99.90;;;;;;5056050;28;20472;-82
2022/11/09 02:01:53;;;;;;;2.57;1.10;;;14.10;99.90;;;;;;5072796;28;20569;-81
2022/11/09 02:04:23;;;;;;;2.33;1.60;;;13.90;99.90;;;;;;5039442;28;20968;-80
2022/11/09 02:06:49;;;;;;;2.97;1.60;;;13.80;99.90;;;;;;5039677;28;20206;-81
2022/11/09 02:09:33;;;;;;;3.80;1.30;;;13.80;99.90;;;;;;5072915;28;20543;-82
2022/11/09 02:11:58;;;;;;;1.17;1.07;;;13.80;99.90;;;;;;5090569;28;20424;-81
2022/11/09 02:14:26;;;;;;;2.60;1.30;;;13.90;99.90;;;;;;5072408;28;20532;-79
2022/11/09 02:16:52;;;;;;;1.63;1.30;;;13.80;99.90;;;;;;5056856;28;21089;-81
2022/11/09 02:19:18;;;;;;;2.07;1.17;;;13.80;99.90;;;;;;5074763;28;20439;-80
2022/11/09 02:21:43;;;;;;;3.97;1.70;;;13.90;99.90;;;;;;5057829;28;20183;-81
2022/11/09 02:24:10;;;;;;;3.77;1.30;;;13.90;99.90;;;;;;5058025;28;20772;-80
2022/11/09 02:26:48;;;;;;;2.27;1.30;;;13.80;99.90;;;;;;5057831;28;20186;-80
2022/11/09 02:29:23;;;;;;;1.70;1.47;;;13.90;99.90;;;;;;5074588;28;20450;-79
2022/11/09 02:31:54;;;;;;;5.13;1.33;;;14.00;99.90;;;;;;5092684;28;20972;-80
2022/11/09 02:34:20;;;;;;;4.93;1.63;;;14.00;99.90;;;;;;5092633;28;20411;-79
2022/11/09 02:36:47;;;;;;;3.27;1.30;;;14.00;99.90;;;;;;5074292;28;20436;-81
2022/11/09 02:39:15;;;;;;;1.83;1.30;;;14.10;99.90;;;;;;5057399;28;20487;-81
2022/11/09 02:42:01;;;;;;;2.97;1.63;;;14.30;99.90;;;;;;5057649;28;20470;-81
2022/11/09 02:44:28;;;;;;;2.43;1.30;;;14.20;99.90;;;;;;5074482;28;20424;-80
2022/11/09 02:46:54;;;;;;;1.97;1.30;;;14.30;99.90;;;;;;5092320;28;20538;-80
2022/11/09 02:49:20;;;;;;;1.90;1.20;;;14.30;99.90;;;;;;5057190;28;20543;-83
2022/11/09 02:51:46;;;;;;;3.07;1.87;;;14.30;99.90;;;;;;5057211;28;20510;-82
2022/11/09 02:54:11;;;;;;;9.17;5.23;;;14.30;99.90;;;;;;5073982;28;20804;-83
2022/11/09 02:56:37;;;;;;;6.20;4.47;;;13.70;99.90;;;;;;5057057;28;20228;-83
2022/11/09 02:59:03;;;;;;;9.93;4.70;;;13.20;99.90;;;;;;5056996;28;20245;-79
2022/11/09 03:01:29;;;;;;;8.27;5.17;;;12.80;99.90;;;;;;5073616;28;20201;-81
2022/11/09 03:03:54;;;;;;;12.33;5.17;;;12.50;99.90;;;;;;5073960;28;20212;-81
2022/11/09 03:06:32;;;;;;;11.40;6.10;;;12.30;99.90;;;;;;5074030;28;20535;-81
2022/11/09 03:08:59;;;;;;;8.43;4.87;;;12.00;99.90;;;;;;5044139;28;20213;-81
2022/11/09 03:11:24;;;;;;;11.17;5.70;;;11.90;99.90;;;;;;5073733;28;20456;-81
2022/11/09 03:13:50;;;;;;;9.00;5.10;;;11.80;99.90;;;;;;5073986;28;21208;-81
2022/11/09 03:16:16;;;;;;;9.17;5.10;;;11.60;99.90;;;;;;5074194;28;20184;-83
2022/11/09 03:18:41;;;;;;;12.70;5.30;;;11.60;99.90;;;;;;5042059;28;20678;-82
2022/11/09 03:21:07;;;;;;;6.00;3.63;;;11.70;99.90;;;;;;5058135;28;20174;-81
2022/11/09 03:23:32;;;;;;;5.00;2.30;;;11.70;99.90;;;;;;5058212;28;20250;-81
2022/11/09 03:25:58;;;;;;;4.00;2.23;;;11.70;99.90;;;;;;5074497;28;20729;-80
2022/11/09 03:28:24;;;;;;;8.33;4.20;;;12.10;99.90;;;;;;5056619;28;20212;-80
2022/11/09 03:30:49;;;;;;;10.77;4.17;;;12.10;99.90;;;;;;5073999;28;20266;-81
2022/11/09 03:33:15;;;;;;;5.57;4.10;;;12.10;99.90;;;;;;5056577;28;20233;-80
2022/11/09 03:35:42;;;;;;;6.60;4.20;;;12.00;99.90;;;;;;5040010;28;20186;-82
2022/11/09 03:38:08;;;;;;;4.40;2.93;;;12.10;99.90;;;;;;5056899;28;20204;-81
2022/11/09 03:40:34;;;;;;;4.60;2.97;;;12.10;99.90;;;;;;5073828;28;20466;-81
2022/11/09 03:42:59;;;;;;;2.67;2.20;;;12.20;99.90;;;;;;5056533;28;20211;-80
2022/11/09 03:45:26;;;;;;;5.07;1.70;;;12.20;99.90;;;;;;5039959;28;20216;-81
2022/11/09 03:47:55;;;;;;;1.97;1.50;;;12.50;99.90;;;;;;5056379;28;20756;-80
2022/11/09 03:50:21;;;;;;;3.00;1.90;;;12.70;99.90;;;;;;5073386;28;20467;-80
2022/11/09 03:52:47;;;;;;;2.60;2.00;;;12.60;99.90;;;;;;5091296;28;20432;-80
2022/11/09 03:55:13;;;;;;;4.47;2.27;;;12.80;99.90;;;;;;5072995;28;20518;-79
2022/11/09 03:57:39;;;;;;;2.97;2.60;;;12.70;99.90;;;;;;5072991;28;20604;-80
2022/11/09 04:00:07;;;;;;;5.47;2.17;;;12.60;99.90;;;;;;5055856;28;20444;-80
2022/11/09 04:02:33;;;;;;;4.90;2.47;;;12.60;99.90;;;;;;5090835;28;20951;-80
2022/11/09 04:04:59;;;;;;;6.97;2.97;;;12.30;99.90;;;;;;5056103;28;20446;-79
2022/11/09 04:07:24;;;;;;;9.30;2.77;;;12.40;99.90;;;;;;5055673;28;20432;-80
2022/11/09 04:09:50;;;;;;;4.03;3.07;;;12.30;99.90;;;;;;5055777;28;20188;-80
2022/11/09 04:12:15;;;;;;;2.83;2.63;;;12.20;99.90;;;;;;5072412;28;20211;-80
2022/11/09 04:14:41;;;;;;;2.50;2.27;;;12.20;99.90;;;;;;5072548;28;20178;-80
2022/11/09 04:17:06;;;;;;;5.27;2.53;;;12.00;99.90;;;;;;5072664;28;20562;-80
2022/11/09 04:19:32;;;;;;;4.47;2.77;;;12.00;99.90;;;;;;5055788;28;20213;-80
2022/11/09 04:21:57;;;;;;;5.23;3.00;;;11.90;99.90;;;;;;5039364;28;20653;-79
2022/11/09 04:24:23;;;;;;;3.37;2.73;;;11.80;99.90;;;;;;5056179;28;20186;-78
2022/11/09 04:26:49;;;;;;;5.73;2.30;;;11.80;99.90;;;;;;5090885;28;20189;-81
2022/11/09 04:29:14;;;;;;;3.87;2.70;;;11.80;99.90;;;;;;5072137;28;20256;-79
2022/11/09 04:31:40;;;;;;;3.30;2.43;;;11.90;99.90;;;;;;5090471;28;20214;-78
2022/11/09 04:34:05;;;;;;;4.50;2.30;;;11.80;99.90;;;;;;5072634;28;20273;-79
2022/11/09 04:36:31;;;;;;;4.07;3.00;;;11.70;99.90;;;;;;5055514;28;20244;-79
2022/11/09 04:38:57;;;;;;;3.87;2.60;;;11.70;99.90;;;;;;5072140;28;20206;-79
2022/11/09 04:41:23;;;;;;;5.90;3.13;;;11.50;99.90;;;;;;5090351;28;21000;-79
2022/11/09 04:43:48;;;;;;;4.53;2.80;;;11.60;99.90;;;;;;5055614;28;20193;-79
2022/11/09 04:46:14;;;;;;;3.20;2.90;;;11.30;99.90;;;;;;5090698;28;20832;-77
2022/11/09 04:48:39;;;;;;;3.67;2.80;;;11.50;99.90;;;;;;5055898;28;20287;-79
2022/11/09 04:51:07;;;;;;;8.00;3.27;;;11.50;99.90;;;;;;5072387;28;20606;-79
2022/11/09 04:53:34;;;;;;;3.57;2.53;;;11.30;99.90;;;;;;5072221;28;20188;-78
2022/11/09 04:56:00;;;;;;;4.53;2.77;;;11.40;99.90;;;;;;5090128;28;20911;-78
2022/11/09 04:58:25;;;;;;;4.60;3.33;;;11.30;99.90;;;;;;5090459;28;20443;-78
2022/11/09 05:00:52;;;;;;;4.83;2.67;;;11.40;99.90;;;;;;5071954;28;20440;-77
2022/11/09 05:03:18;;;;;;;3.90;2.70;;;11.40;99.90;;;;;;5090145;28;20270;-78
2022/11/09 05:05:44;;;;;;;3.10;2.70;;;11.50;99.90;;;;;;5090348;28;20427;-79
2022/11/09 05:08:10;;;;;;;5.40;3.00;;;11.30;99.90;;;;;;5072160;28;20211;-77
2022/11/09 05:10:36;;;;;;;5.00;3.53;;;11.20;99.90;;;;;;5090159;28;20222;-80
2022/11/09 05:13:07;;;;;;;3.50;3.20;;;11.30;99.90;;;;;;5055566;28;20445;-79
2022/11/09 05:15:34;;;;;;;4.97;3.13;;;11.30;99.90;;;;;;5074020;28;20419;-79
2022/11/09 05:18:00;;;;;;;5.73;3.80;;;11.10;99.90;;;;;;5072748;28;20512;-80
2022/11/09 05:20:27;;;;;;;5.53;3.50;;;11.20;99.90;;;;;;5072359;28;20431;-80
2022/11/09 05:25:38;;;;;;;3.60;3.17;;;11.00;99.90;;;;;;5074062;28;20412;-78
2022/11/09 05:28:04;;;;;;;7.50;3.00;;;10.80;99.90;;;;;;5090015;28;20442;-79
2022/11/09 05:30:30;;;;;;;3.40;3.10;;;10.80;99.90;;;;;;5057039;28;20465;-79
2022/11/09 05:32:55;;;;;;;3.27;2.60;;;10.90;99.90;;;;;;5077758;28;20430;-80
2022/11/09 05:35:21;;;;;;;8.60;2.73;;;10.90;99.90;;;;;;5072336;28;20188;-80
2022/11/09 05:37:47;;;;;;;4.77;2.37;;;11.10;99.90;;;;;;5054871;28;20216;-79
2022/11/09 05:40:14;;;;;;;2.30;1.93;;;11.20;99.90;;;;;;5089688;28;20188;-79
2022/11/09 05:42:40;;;;;;;2.50;1.70;;;11.20;99.90;;;;;;5090024;28;20431;-79
2022/11/09 05:45:08;;;;;;;3.73;2.37;;;11.40;99.90;;;;;;5089492;28;20422;-79
2022/11/09 05:47:41;;;;;;;2.00;1.57;;;11.40;99.90;;;;;;5071468;28;20254;-80
2022/11/09 05:50:09;;;;;;;3.50;1.90;;;11.60;99.90;;;;;;5054700;28;21347;-80
2022/11/09 05:52:35;;;;;;;2.37;1.57;;;11.60;99.90;;;;;;5090700;28;20426;-80
2022/11/09 05:55:01;;;;;;;2.20;1.80;;;11.70;99.90;;;;;;5090879;28;20418;-80
2022/11/09 05:57:27;;;;;;;3.00;1.73;;;11.70;99.90;;;;;;5071766;28;20190;-80
2022/11/09 05:59:53;;;;;;;3.53;2.30;;;11.80;99.90;;;;;;5071334;28;20475;-80
2022/11/09 06:02:19;;;;;;;2.03;1.60;;;11.80;99.90;;;;;;5071602;28;20909;-81
2022/11/09 06:04:44;;;;;;;1.63;1.40;;;12.00;99.90;;;;;;5038302;28;20270;-79
2022/11/09 06:07:10;;;;;;;3.83;1.80;;;11.80;99.90;;;;;;5089501;28;20536;-80
2022/11/09 06:09:35;;;;;;;1.90;1.10;;;11.90;99.90;;;;;;5070528;28;20211;-79
2022/11/09 06:12:01;;;;;;;3.37;1.83;;;11.80;99.90;;;;;;5071377;28;20293;-79
2022/11/09 06:14:27;;;;;;;1.50;1.00;;;12.00;99.90;;;;;;5055056;28;20196;-80
2022/11/09 06:16:52;;;;;;;4.00;1.30;;;12.10;99.90;;;;;;5071272;28;20232;-78
2022/11/09 06:19:18;;;;;;;2.63;1.30;;;12.30;99.90;;;;;;5071326;28;20880;-78
2022/11/09 06:21:43;;;;;;;2.80;1.23;;;12.20;99.90;;;;;;5054422;28;20189;-79
2022/11/09 06:24:09;;;;;;;1.50;1.30;;;12.20;99.90;;;;;;5070723;28;20181;-80
2022/11/09 06:26:35;;;;;;;2.60;1.70;;;12.30;99.90;;;;;;5070808;28;20188;-80
2022/11/09 06:29:01;;;;;;;1.63;1.47;;;12.30;99.90;;;;;;5070344;28;20497;-79
2022/11/09 06:31:27;;;;;;;1.10;1.00;;;12.30;99.90;;;;;;5089152;28;20870;-79
2022/11/09 06:33:52;;;;;;;1.50;1.40;;;12.40;99.90;;;;;;5070800;28;20197;-78
2022/11/09 06:36:18;;;;;;;1.30;1.03;;;12.50;99.90;;;;;;5088222;28;20182;-78
2022/11/09 06:38:47;;;;;;;3.63;0.90;;;12.60;99.90;;;;;;5054055;28;20247;-80
2022/11/09 06:41:13;;;;;;;2.37;1.20;;;12.70;99.90;;;;;;5070749;28;20677;-81
2022/11/09 06:43:39;;;;;;;3.23;1.10;;;12.70;99.90;;;;;;5075948;28;20428;-80
2022/11/09 06:46:05;;;;;;;2.40;1.60;;;12.80;99.90;;;;;;5095403;28;20407;-79
2022/11/09 06:48:30;;;;;;;2.30;1.50;;;12.70;99.90;;;;;;5095827;28;20212;-80
2022/11/09 06:51:04;;;;;;;2.50;1.50;;;12.70;99.90;;;;;;5060639;28;20474;-80
2022/11/09 06:53:31;;;;;;;2.53;1.70;;;12.90;99.90;;;;;;5077439;28;20182;-80
2022/11/09 06:55:58;;;;;;;2.10;1.63;;;12.90;99.90;;;;;;5077664;28;20446;-79
2022/11/09 06:58:23;;;;;;;2.03;1.40;;;12.90;99.90;;;;;;5095855;28;20554;-80
2022/11/09 07:00:49;;;;;;;4.60;1.53;;;13.00;99.90;;;;;;5096151;28;20440;-80
2022/11/09 07:03:16;;;;;;;1.73;1.00;;;12.90;99.90;;;;;;5080222;28;20659;-80
2022/11/09 07:05:42;;;;;;;2.40;1.13;;;12.90;99.90;;;;;;5080370;28;20288;-81
2022/11/09 07:08:08;;;;;;;2.77;1.40;;;12.90;99.90;;;;;;5097500;28;20478;-81
2022/11/09 07:10:33;;;;;;;4.20;1.83;;;12.90;99.90;;;;;;5096320;28;20467;-79
2022/11/09 07:12:59;;;;;;;1.73;1.40;;;12.90;99.90;;;;;;5077925;28;20189;-79
2022/11/09 07:15:25;;;;;;;3.80;1.40;;;12.90;99.90;;;;;;5077714;28;20565;-79
2022/11/09 07:17:50;;;;;;;4.30;1.53;;;12.80;99.90;;;;;;5076172;28;20279;-79
2022/11/09 07:20:16;;;;;;;1.77;1.53;;;12.70;99.90;;;;;;5073849;28;20184;-79
2022/11/09 07:22:42;;;;;;;7.03;1.43;;;12.80;99.90;;;;;;5074219;28;20186;-78
2022/11/09 07:25:10;;;;;;;5.57;1.63;;;12.70;99.90;;;;;;5057996;28;20182;-79
2022/11/09 07:27:36;;;;;;;4.47;1.40;;;12.80;99.90;;;;;;5057298;28;20192;-79
2022/11/09 07:30:03;;;;;;;5.00;1.13;;;12.80;99.90;;;;;;5091484;28;20458;-79
2022/11/09 07:32:31;;;;;;;2.43;1.63;;;12.80;99.90;;;;;;5073323;28;20208;-79
2022/11/09 07:34:57;;;;;;;3.03;1.37;;;12.90;99.90;;;;;;5092109;28;20420;-79
2022/11/09 07:37:22;;;;;;;2.40;1.40;;;12.90;99.90;;;;;;5091649;28;20416;-78
2022/11/09 07:39:48;;;;;;;1.40;1.30;;;12.90;99.90;;;;;;5073387;28;20218;-78
2022/11/09 07:42:13;;;;;;;2.57;1.50;;;12.90;99.90;;;;;;5056685;28;20192;-78
2022/11/09 07:44:39;;;;;;;2.50;1.30;;;12.90;99.90;;;;;;5091535;28;20331;-80
2022/11/09 07:47:04;;;;;;;1.67;1.10;;;12.90;99.90;;;;;;5045293;28;20809;-80
2022/11/09 07:49:31;;;;;;;2.40;1.40;;;12.90;99.90;;;;;;5096402;28;20209;-81
2022/11/09 07:51:56;;;;;;;5.57;2.23;;;13.00;99.90;;;;;;5060904;28;20224;-80
2022/11/09 07:54:22;;;;;;;5.00;1.30;;;12.90;99.90;;;;;;5044375;28;20421;-79
2022/11/09 07:56:47;;;;;;;2.33;1.00;;;12.90;99.90;;;;;;5095916;28;20616;-78
2022/11/09 07:59:13;;;;;;;4.93;1.37;;;12.90;99.90;;;;;;5061456;28;20209;-81
2022/11/09 08:01:38;;;;;;;2.77;1.60;;;12.90;99.90;;;;;;5077780;28;20570;-80
2022/11/09 08:04:05;;;;;;;3.03;1.80;;;12.90;99.90;;;;;;5095967;28;20271;-79
2022/11/09 08:06:30;;;;;;;5.70;2.40;;;12.80;99.90;;;;;;5043009;28;20988;-80
2022/11/09 08:08:56;;;;;;;4.50;3.50;;;12.50;99.90;;;;;;5075343;28;20450;-79
2022/11/09 08:11:23;;;;;;;2.80;2.60;;;12.30;99.90;;;;;;5094864;28;20563;-79
2022/11/09 08:13:48;;;;;;;3.03;2.73;;;12.30;99.90;;;;;;5077066;28;20429;-78
2022/11/09 08:16:14;;;;;;;5.17;2.43;;;12.20;99.90;;;;;;5077964;28;20423;-79
2022/11/09 08:18:40;;;;;;;3.97;2.57;;;12.20;99.90;;;;;;5095732;28;20436;-79
2022/11/09 08:21:05;;;;;;;5.53;2.67;;;12.20;99.90;;;;;;5097372;28;20265;-81
2022/11/09 08:23:31;;;;;;;2.87;2.43;;;12.20;99.90;;;;;;5075606;28;20192;-80
2022/11/09 08:26:02;;;;;;;4.50;2.60;;;12.10;99.90;;;;;;5076343;28;20669;-79
2022/11/09 08:28:27;;;;;;;2.77;2.57;;;12.20;99.90;;;;;;5094918;28;20201;-79
2022/11/09 08:30:56;;;;;;;5.63;2.87;;;12.00;99.90;;;;;;5076245;28;20472;-79
2022/11/09 08:33:22;;;;;;;4.60;2.20;;;11.80;99.90;;;;;;5075275;28;20192;-79
2022/11/09 08:35:48;;;;;;;3.80;2.37;;;11.70;99.90;;;;;;5073665;28;20514;-79
2022/11/09 08:38:13;;;;;;;3.67;2.60;;;11.60;99.90;;;;;;5057009;28;20240;-78
2022/11/09 08:40:39;;;;;;;3.20;2.20;;;11.50;99.90;;;;;;5091637;28;20649;-79
2022/11/09 08:43:06;;;;;;;4.10;2.50;;;11.50;99.90;;;;;;5073944;28;20202;-79
2022/11/09 08:45:34;;;;;;;3.33;2.73;;;11.40;99.90;;;;;;5092165;28;20638;-78
2022/11/09 08:48:01;;;;;;;2.63;2.33;;;11.20;99.90;;;;;;5073097;28;20454;-79
2022/11/09 08:50:28;;;;;;;3.63;2.87;;;11.60;99.90;;;;;;5091821;28;20459;-79
2022/11/09 08:52:54;;;;;;;2.13;1.90;;;11.30;99.90;;;;;;5091031;28;20420;-79
2022/11/09 08:55:20;;;;;;;1.43;1.33;;;11.40;99.90;;;;;;5091136;28;20902;-79
2022/11/09 08:57:45;;;;;;;3.70;1.47;;;11.30;99.90;;;;;;5072299;28;20450;-79
2022/11/09 09:00:12;;;;;;;1.67;1.23;;;11.50;99.90;;;;;;5072525;28;20427;-80
2022/11/09 09:02:37;;;;;;;2.10;0.90;;;11.20;99.90;;;;;;5072491;28;20213;-81
2022/11/09 09:05:04;;;;;;;1.37;0.80;;;11.30;99.90;;;;;;5056988;28;20526;-80
2022/11/09 09:07:29;;;;;;;1.20;0.70;;;11.30;99.90;;;;;;5072809;28;20288;-79
2022/11/09 09:09:55;;;;;;;0.80;0.60;;;11.30;99.90;;;;;;5071891;28;20526;-79
2022/11/09 09:12:21;;;;;;;0.80;0.50;;;11.30;99.90;;;;;;5090438;28;20204;-79
2022/11/09 09:14:46;;;;;;;2.10;0.80;;;11.40;99.90;;;;;;5090851;28;20180;-80
2022/11/09 09:17:12;;;;;;;0.90;0.57;;;11.40;99.90;;;;;;5072030;28;20223;-80
2022/11/09 09:19:37;;;;;;;3.03;0.80;;;11.40;99.90;;;;;;5089904;28;20208;-79
2022/11/09 09:22:03;;;;;;;1.10;0.63;;;11.30;99.90;;;;;;5055321;28;20205;-80
2022/11/09 09:24:29;;;;;;;1.00;0.63;;;11.40;99.90;;;;;;5090196;28;20642;-80
2022/11/09 09:26:54;;;;;;;1.53;0.70;;;11.30;99.90;;;;;;5070951;28;20216;-78
2022/11/09 09:29:20;;;;;;;0.80;0.50;;;11.70;99.90;;;;;;5054322;28;20767;-79
2022/11/09 09:31:46;;;;;;;0.80;0.60;;;11.50;99.90;;;;;;5089258;28;20221;-79
2022/11/09 09:34:12;;;;;;;0.70;0.53;;;11.60;99.90;;;;;;5070996;28;20189;-79
2022/11/09 09:36:38;;;;;;;1.60;0.60;;;11.60;99.90;;;;;;5071150;28;20197;-81
2022/11/09 09:39:04;;;;;;;0.70;0.50;;;11.80;99.90;;;;;;5070784;28;20526;-79
2022/11/09 09:41:47;;;;;;;0.70;0.40;;;11.80;99.90;;;;;;5071217;28;21005;-79
2022/11/09 09:44:24;;;;;;;0.70;0.40;;;11.80;99.90;;;;;;5088657;28;20419;-80
2022/11/09 09:47:14;;;;;;;0.80;0.60;;;11.90;99.90;;;;;;5069625;28;20440;-79
2022/11/09 09:50:02;;;;;;;0.70;0.40;;;12.00;99.90;;;;;;5088104;28;21006;-79
2022/11/09 09:52:59;;;;;;;0.80;0.50;;;12.00;99.90;;;;;;5069814;28;20511;-80
2022/11/09 09:55:33;;;;;;;1.10;0.80;;;12.20;99.90;;;;;;5088000;28;20956;-80
2022/11/09 09:58:05;;;;;;;1.97;1.00;;;12.30;99.90;;;;;;5069237;28;20956;-80
2022/11/09 10:00:34;;;;;;;1.67;1.30;;;12.40;99.90;;;;;;5052942;28;20500;-80
2022/11/09 10:03:00;;;;;;;1.33;1.23;;;12.50;99.90;;;;;;5055689;28;20480;-79
2022/11/09 10:05:56;;;;;;;2.23;1.57;;;12.60;99.90;;;;;;5071602;28;20422;-79
2022/11/09 10:08:53;;;;;;;1.83;1.50;;;12.70;99.90;;;;;;5065476;28;20432;-80
2022/11/09 10:12:08;;;;;;;1.87;1.00;;;12.80;99.90;;;;;;5071314;28;20479;-80
2022/11/09 10:14:46;;;;;;;2.30;1.20;;;12.90;99.90;;;;;;5046915;28;20430;-79
2022/11/09 10:17:22;;;;;;;2.23;1.43;;;13.10;99.90;;;;;;5091284;28;20423;-79
2022/11/09 10:19:57;;;;;;;2.17;1.70;;;13.30;99.90;;;;;;5089748;28;20454;-79
2022/11/09 10:22:42;;;;;;;1.73;1.50;;;13.40;99.90;;;;;;5089016;28;20897;-79
2022/11/09 10:25:25;;;;;;;1.20;1.07;;;13.60;99.90;;;;;;5071641;28;20421;-79
2022/11/09 10:28:09;;;;;;;2.20;1.23;;;13.70;99.90;;;;;;5071290;28;20447;-79
2022/11/09 10:30:35;;;;;;;1.20;1.10;;;14.00;99.90;;;;;;5070981;28;20455;-80
2022/11/09 10:33:09;;;;;;;3.37;1.03;;;14.30;99.90;;;;;;5054866;28;20435;-79
2022/11/09 10:36:03;;;;;;;1.57;1.33;;;14.60;99.90;;;;;;5072198;28;20186;-81
2022/11/09 10:38:37;;;;;;;1.40;0.93;;;14.80;99.90;;;;;;5094042;28;20519;-79
2022/11/09 10:41:05;;;;;;;2.40;1.40;;;14.90;99.90;;;;;;5095315;28;20419;-80
2022/11/09 10:43:31;;;;;;;1.97;1.13;;;14.80;99.90;;;;;;5076951;28;20511;-80
2022/11/09 10:46:07;;;;;;;1.70;1.20;;;14.80;99.90;;;;;;5076171;28;20523;-81
2022/11/09 10:48:36;;;;;;;1.33;1.20;;;14.60;99.90;;;;;;5059759;28;20202;-80
2022/11/09 10:51:02;;;;;;;1.63;1.13;;;14.70;99.90;;;;;;5094016;28;20463;-80
2022/11/09 10:53:30;;;;;;;1.07;0.97;;;14.60;99.90;;;;;;5075054;28;20416;-79
2022/11/09 10:56:15;;;;;;;1.97;0.80;;;14.70;99.90;;;;;;5074840;28;20426;-79
2022/11/09 10:58:53;;;;;;;2.23;0.90;;;14.80;99.90;;;;;;5092858;28;20438;-79
2022/11/09 11:01:23;;;;;;;53.37;28.80;;;14.80;99.90;;;;;;5093166;28;20807;-80
2022/11/09 11:03:51;;;;;;;8.00;4.20;;;14.80;99.90;;;;;;5073688;28;21014;-80
2022/11/09 11:06:20;;;;;;;5.07;3.33;;;14.80;99.90;;;;;;5092356;28;20862;-79
2022/11/09 11:08:49;;;;;;;2.27;2.07;;;14.70;99.90;;;;;;5092974;28;20494;-79
2022/11/09 11:11:19;;;;;;;2.50;1.27;;;14.70;99.90;;;;;;5075444;28;20459;-79
2022/11/09 11:13:47;;;;;;;2.00;1.20;;;14.70;99.90;;;;;;5074957;28;20922;-79
2022/11/09 11:16:26;;;;;;;1.73;1.40;;;14.80;99.90;;;;;;5095293;28;20413;-79
2022/11/09 11:18:52;;;;;;;1.77;1.20;;;14.70;99.90;;;;;;5092155;28;20434;-79
2022/11/09 11:21:20;;;;;;;4.87;1.47;;;14.70;99.90;;;;;;5091573;28;20874;-78
2022/11/09 11:24:12;;;;;;;1.37;1.10;;;14.80;99.90;;;;;;5074205;28;21250;-78
2022/11/09 11:26:51;;;;;;;1.60;0.97;;;14.80;99.90;;;;;;5093288;28;20507;-79
2022/11/09 11:29:19;;;;;;;1.70;0.97;;;14.80;99.90;;;;;;5093485;28;20554;-79
2022/11/09 11:31:45;;;;;;;2.57;0.90;;;14.90;99.90;;;;;;5092405;28;20470;-79
2022/11/09 11:34:14;;;;;;;1.13;1.00;;;15.00;99.90;;;;;;5056739;28;20429;-79
2022/11/09 11:36:55;;;;;;;1.30;1.10;;;15.00;99.90;;;;;;5075493;28;20190;-81
2022/11/09 11:39:42;;;;;;;2.80;1.37;;;15.10;99.90;;;;;;5074700;28;20440;-79
2022/11/09 11:42:27;;;;;;;3.40;1.10;;;15.10;99.90;;;;;;5074344;28;21006;-79
2022/11/09 11:45:14;;;;;;;3.27;1.20;;;15.10;99.90;;;;;;5094172;28;20446;-79
2022/11/09 11:47:58;;;;;;;1.00;0.90;;;15.00;99.90;;;;;;5092179;28;20437;-78
2022/11/09 11:50:53;;;;;;;1.40;1.03;;;15.00;99.90;;;;;;5074473;28;20483;-79
2022/11/09 11:53:30;;;;;;;1.90;1.13;;;15.00;99.90;;;;;;5074225;28;20443;-79
2022/11/09 11:56:23;;;;;;;1.40;1.17;;;15.10;99.90;;;;;;5091160;28;20517;-79
2022/11/09 11:59:07;;;;;;;1.30;0.90;;;14.90;99.90;;;;;;5091601;28;20424;-79
2022/11/09 12:01:36;;;;;;;1.10;1.00;;;14.90;99.90;;;;;;5091550;28;20459;-79
2022/11/09 12:04:30;;;;;;;0.90;0.70;;;14.90;99.90;;;;;;5091763;28;20410;-79
2022/11/09 12:07:19;;;;;;;2.80;0.70;;;14.90;99.90;;;;;;5091301;28;20416;-79
2022/11/09 12:10:13;;;;;;;0.90;0.70;;;14.90;99.90;;;;;;5091664;28;21298;-79
2022/11/09 12:13:16;;;;;;;1.60;1.30;;;14.90;99.90;;;;;;5090802;28;20864;-78
2022/11/09 12:15:48;;;;;;;1.70;1.03;;;15.00;99.90;;;;;;5090218;28;20917;-78
2022/11/09 12:18:32;;;;;;;1.67;1.23;;;15.00;99.90;;;;;;5091815;28;20509;-79
2022/11/09 12:21:06;;;;;;;1.53;1.10;;;15.10;99.90;;;;;;5092564;28;20417;-79
2022/11/09 12:23:51;;;;;;;1.20;1.00;;;15.10;99.90;;;;;;5108644;28;20423;-77
2022/11/09 12:26:41;;;;;;;1.50;0.83;;;15.10;99.90;;;;;;5111495;28;20430;-76
2022/11/09 12:29:18;;;;;;;1.30;1.20;;;15.20;99.90;;;;;;5114743;28;20452;-77
2022/11/09 12:32:08;;;;;;;1.87;0.97;;;15.20;99.90;;;;;;5073127;28;20841;-79
2022/11/09 12:34:57;;;;;;;1.30;0.90;;;15.30;99.90;;;;;;5073235;28;20426;-78
2022/11/09 12:37:34;;;;;;;2.20;1.20;;;15.30;99.90;;;;;;5051692;28;20428;-78
2022/11/09 12:40:24;;;;;;;1.10;1.00;;;15.30;99.90;;;;;;5090906;28;20451;-78
2022/11/09 12:43:24;;;;;;;1.13;0.80;;;15.30;99.90;;;;;;5072534;28;20449;-79
2022/11/09 12:45:52;;;;;;;1.33;1.10;;;15.40;99.90;;;;;;5089840;28;20453;-79
2022/11/09 12:48:29;;;;;;;0.90;0.60;;;15.50;99.90;;;;;;5089715;28;20440;-79
2022/11/09 12:50:55;;;;;;;2.40;1.13;;;15.60;99.90;;;;;;5071441;28;20831;-79
2022/11/09 12:53:25;;;;;;;2.17;1.07;;;15.60;99.90;;;;;;5071431;28;20453;-78
2022/11/09 12:55:54;;;;;;;1.43;0.97;;;15.70;99.90;;;;;;5091423;28;20493;-79
2022/11/09 12:58:31;;;;;;;3.63;1.17;;;15.70;99.90;;;;;;5089934;28;20430;-80
2022/11/09 13:00:59;;;;;;;1.30;0.87;;;15.60;99.90;;;;;;5089918;28;20421;-80